Time;durP1;ratioP1;P1;durP2;ratioP2;P2;SDS_P1;SDS_P2;PMS_P1;PMS_P2;Temp;Humidity;BMP_temperature;BMP_pressure;BME280_temperature;BME280_humidity;BME280_pressure;Samples;Min_cycle;Max_cycle;Signal;HPM_P1;HPM_P2
2023/01/01 00:01:23;;;;;;;;;;;15.40;99.90;;;;;;5067029;28;20350;-66
2023/01/01 00:03:53;;;;;;;;;;;15.30;99.90;;;;;;5068170;28;20289;-64
2023/01/01 00:06:19;;;;;;;;;;;15.40;99.90;;;;;;5063979;28;19932;-65
2023/01/01 00:08:45;;;;;;;;;;;15.40;99.90;;;;;;5074656;28;20572;-64
2023/01/01 00:11:11;;;;;;;;;;;15.50;99.90;;;;;;5067584;28;20121;-64
2023/01/01 00:13:37;;;;;;;;;;;15.40;99.90;;;;;;5069682;28;20374;-65
2023/01/01 00:16:05;;;;;;;;;;;15.40;99.90;;;;;;5074682;28;19936;-65
2023/01/01 00:18:31;;;;;;;;;;;15.30;99.90;;;;;;5075930;28;20382;-65
2023/01/01 00:21:03;;;;;;;;;;;15.20;99.90;;;;;;5069791;28;19981;-64
2023/01/01 00:23:29;;;;;;;;;;;15.30;99.90;;;;;;5072489;28;19915;-64
2023/01/01 00:25:54;;;;;;;;;;;15.30;99.90;;;;;;5071620;28;20265;-65
2023/01/01 00:28:19;;;;;;;;;;;15.10;99.90;;;;;;5077589;28;20362;-65
2023/01/01 00:30:45;;;;;;;;;;;15.00;99.90;;;;;;5069891;28;19913;-63
2023/01/01 00:33:10;;;;;;;;;;;15.00;99.90;;;;;;5070500;28;19955;-64
2023/01/01 00:35:36;;;;;;;;;;;15.00;99.90;;;;;;5070491;28;19909;-65
2023/01/01 00:38:01;;;;;;;;;;;14.90;99.90;;;;;;5070745;28;19908;-64
2023/01/01 00:40:27;;;;;;;;;;;14.90;99.90;;;;;;5075630;28;21830;-64
2023/01/01 00:42:52;;;;;;;;;;;15.00;99.90;;;;;;5075795;28;19908;-64
2023/01/01 00:45:18;;;;;;;;;;;15.00;99.90;;;;;;5077165;28;20016;-65
2023/01/01 00:47:43;;;;;;;;;;;15.10;99.90;;;;;;5076685;28;19912;-65
2023/01/01 00:50:09;;;;;;;;;;;15.20;99.90;;;;;;5067795;28;20277;-65
2023/01/01 00:52:34;;;;;;;;;;;15.20;99.90;;;;;;5070162;28;19951;-63
2023/01/01 00:54:59;;;;;;;;;;;15.40;99.90;;;;;;5070014;28;19919;-63
2023/01/01 00:57:25;;;;;;;;;;;15.30;99.90;;;;;;5069506;28;19961;-64
2023/01/01 00:59:50;;;;;;;;;;;15.30;99.90;;;;;;5072947;28;19916;-64
2023/01/01 01:02:16;;;;;;;;;;;15.20;99.90;;;;;;5068979;28;20293;-63
2023/01/01 01:04:41;;;;;;;;;;;15.20;99.90;;;;;;5076725;28;19916;-63
2023/01/01 01:07:07;;;;;;;;;;;15.20;99.90;;;;;;5068961;28;19917;-63
2023/01/01 01:09:32;;;;;;;;;;;15.30;99.90;;;;;;5071011;28;19904;-65
2023/01/01 01:11:58;;;;;;;;;;;15.20;99.90;;;;;;5077684;28;19911;-64
2023/01/01 01:14:23;;;;;;;;;;;15.10;99.90;;;;;;5070720;28;19915;-64
2023/01/01 01:16:49;;;;;;;;;;;15.20;99.90;;;;;;5071762;28;19905;-64
2023/01/01 01:19:17;;;;;;;;;;;15.20;99.90;;;;;;5081458;28;20512;-64
2023/01/01 01:21:43;;;;;;;;;;;15.10;99.90;;;;;;5066824;28;20320;-63
2023/01/01 01:24:09;;;;;;;;;;;15.00;99.90;;;;;;5069845;28;20266;-64
2023/01/01 01:26:35;;;;;;;;;;;15.00;99.90;;;;;;5071400;28;19913;-63
2023/01/01 01:29:01;;;;;;;;;;;14.90;99.90;;;;;;5071261;28;19916;-65
2023/01/01 01:31:28;;;;;;;;;;;15.10;99.90;;;;;;5066036;28;20378;-63
2023/01/01 01:33:54;;;;;;;;;;;15.00;99.90;;;;;;5066273;28;19958;-63
2023/01/01 01:36:19;;;;;;;;;;;15.00;99.90;;;;;;5063883;28;19909;-63
2023/01/01 01:38:45;;;;;;;;;;;15.10;99.90;;;;;;5072032;28;20386;-63
2023/01/01 01:41:14;;;;;;;;;;;15.10;99.90;;;;;;5087256;28;19990;-64
2023/01/01 01:43:39;;;;;;;;;;;15.30;99.90;;;;;;5075241;28;20007;-61
2023/01/01 01:46:09;;;;;;;;;;;15.20;99.90;;;;;;5073154;28;20003;-63
2023/01/01 01:48:42;;;;;;;;;;;15.20;99.90;;;;;;5078094;28;19955;-64
2023/01/01 01:51:08;;;;;;;;;;;15.20;99.90;;;;;;5072019;28;20011;-64
2023/01/01 01:53:37;;;;;;;;;;;15.20;99.90;;;;;;5076998;28;19935;-63
2023/01/01 01:56:05;;;;;;;;;;;15.10;99.90;;;;;;5072735;28;19909;-63
2023/01/01 01:58:31;;;;;;;;;;;15.20;99.90;;;;;;5073685;28;20003;-64
2023/01/01 02:00:57;;;;;;;;;;;15.20;99.90;;;;;;5075943;28;20352;-64
2023/01/01 02:03:40;;;;;;;;;;;15.20;99.90;;;;;;5071509;28;19924;-62
2023/01/01 02:06:06;;;;;;;;;;;15.20;99.90;;;;;;5073204;28;19961;-63
2023/01/01 02:08:32;;;;;;;;;;;15.20;99.90;;;;;;5068498;28;19913;-64
2023/01/01 02:10:58;;;;;;;;;;;15.30;99.90;;;;;;5068668;28;19909;-64
2023/01/01 02:13:23;;;;;;;;;;;15.30;99.90;;;;;;5069402;28;19995;-64
2023/01/01 02:15:54;;;;;;;;;;;15.30;99.90;;;;;;5072374;28;19908;-63
2023/01/01 02:18:24;;;;;;;;;;;15.20;99.90;;;;;;5067971;28;19962;-64
2023/01/01 02:20:58;;;;;;;;;;;15.20;99.90;;;;;;5071389;28;20406;-63
2023/01/01 02:23:26;;;;;;;;;;;15.30;99.90;;;;;;5071799;28;19915;-63
2023/01/01 02:26:07;;;;;;;;;;;15.20;99.90;;;;;;5070288;28;19962;-63
2023/01/01 02:28:43;;;;;;;;;;;15.20;99.90;;;;;;5070660;28;20439;-63
2023/01/01 02:31:11;;;;;;;;;;;15.20;99.90;;;;;;5073219;28;19909;-63
2023/01/01 02:33:37;;;;;;;;;;;15.30;99.90;;;;;;5071267;28;20362;-65
2023/01/01 02:36:03;;;;;;;;;;;15.10;99.90;;;;;;5070289;28;19927;-63
2023/01/01 02:38:29;;;;;;;;;;;15.20;99.90;;;;;;5075210;28;20259;-64
2023/01/01 02:40:56;;;;;;;;;;;15.20;99.90;;;;;;5073803;28;19995;-65
2023/01/01 02:43:22;;;;;;;;;;;15.10;99.90;;;;;;5071304;28;19908;-65
2023/01/01 02:45:47;;;;;;;;;;;15.20;99.90;;;;;;5071129;28;20023;-65
2023/01/01 02:48:31;;;;;;;;;;;15.10;99.90;;;;;;5074429;28;19912;-63
2023/01/01 02:51:01;;;;;;;;;;;15.20;99.90;;;;;;5068567;28;19908;-63
2023/01/01 02:53:32;;;;;;;;;;;15.20;99.90;;;;;;5068306;28;19958;-63
2023/01/01 02:56:05;;;;;;;;;;;15.30;99.90;;;;;;5071810;28;19909;-63
2023/01/01 03:01:41;;;;;;;;;;;15.20;99.90;;;;;;5070394;28;19973;-64
2023/01/01 03:04:10;;;;;;;;;;;15.20;99.90;;;;;;5074235;28;20361;-63
2023/01/01 03:06:43;;;;;;;;;;;15.30;99.90;;;;;;5067357;28;19935;-64
2023/01/01 03:09:23;;;;;;;;;;;15.20;99.90;;;;;;5066076;28;19912;-64
2023/01/01 03:11:51;;;;;;;;;;;15.10;99.90;;;;;;5072790;28;19915;-64
2023/01/01 03:14:25;;;;;;;;;;;15.20;99.90;;;;;;5070018;28;19909;-64
2023/01/01 03:16:58;;;;;;;;;;;15.30;99.90;;;;;;5066128;28;19961;-65
2023/01/01 03:19:34;;;;;;;;;;;15.30;99.90;;;;;;5077506;28;19954;-64
2023/01/01 03:22:02;;;;;;;;;;;15.30;99.90;;;;;;5068209;28;19924;-64
2023/01/01 03:24:35;;;;;;;;;;;15.40;99.90;;;;;;5068701;28;19916;-63
2023/01/01 03:27:09;;;;;;;;;;;15.30;99.90;;;;;;5070006;28;20011;-64
2023/01/01 03:29:38;;;;;;;;;;;15.40;99.90;;;;;;5080558;28;19995;-60
2023/01/01 03:32:04;;;;;;;;;;;15.30;99.90;;;;;;5068326;28;20370;-64
2023/01/01 03:34:37;;;;;;;;;;;15.40;99.90;;;;;;5070369;28;19920;-64
2023/01/01 03:37:05;;;;;;;;;;;15.40;99.90;;;;;;5070435;28;19955;-64
2023/01/01 03:39:34;;;;;;;;;;;15.40;99.90;;;;;;5070028;28;19976;-64
2023/01/01 03:42:12;;;;;;;;;;;15.40;99.90;;;;;;5070037;28;19912;-63
2023/01/01 03:44:42;;;;;;;;;;;15.40;99.90;;;;;;5065123;28;19915;-64
2023/01/01 03:47:08;;;;;;;;;;;15.40;99.90;;;;;;5067202;28;19912;-63
2023/01/01 03:49:34;;;;;;;;;;;15.30;99.90;;;;;;5069994;28;19961;-64
2023/01/01 03:52:15;;;;;;;;;;;15.40;99.90;;;;;;5070767;28;19912;-64
2023/01/01 03:54:49;;;;;;;;;;;15.30;99.90;;;;;;5071898;28;19941;-64
2023/01/01 03:57:19;;;;;;;;;;;15.40;99.90;;;;;;5078226;28;19953;-64
2023/01/01 03:59:44;;;;;;;;;;;15.40;99.90;;;;;;5071377;28;20034;-64
2023/01/01 04:02:12;;;;;;;;;;;15.40;99.90;;;;;;5070928;28;19995;-62
2023/01/01 04:04:38;;;;;;;;;;;15.30;99.90;;;;;;5068367;28;20251;-64
2023/01/01 04:07:03;;;;;;;;;;;15.40;99.90;;;;;;5069557;28;19919;-64
2023/01/01 04:09:30;;;;;;;;;;;15.40;99.90;;;;;;5080490;28;19912;-64
2023/01/01 04:12:05;;;;;;;;;;;15.30;99.90;;;;;;5074064;28;19916;-64
2023/01/01 04:14:32;;;;;;;;;;;15.40;99.90;;;;;;5066497;28;20331;-64
2023/01/01 04:16:58;;;;;;;;;;;15.40;99.90;;;;;;5073699;28;19955;-64
2023/01/01 04:19:24;;;;;;;;;;;15.40;99.90;;;;;;5070896;28;19931;-63
2023/01/01 04:21:50;;;;;;;;;;;15.40;99.90;;;;;;5070687;28;19909;-63
2023/01/01 04:24:15;;;;;;;;;;;15.40;99.90;;;;;;5069630;28;19919;-63
2023/01/01 04:26:41;;;;;;;;;;;15.40;99.90;;;;;;5078098;28;19915;-63
2023/01/01 04:29:06;;;;;;;;;;;15.50;99.90;;;;;;5066386;28;19916;-65
2023/01/01 04:31:32;;;;;;;;;;;15.40;99.90;;;;;;5070854;28;20354;-64
2023/01/01 04:33:58;;;;;;;;;;;15.40;99.90;;;;;;5073001;28;19968;-63
2023/01/01 04:36:23;;;;;;;;;;;15.30;99.90;;;;;;5079522;28;19908;-65
2023/01/01 04:38:49;;;;;;;;;;;15.40;99.90;;;;;;5070857;28;19912;-63
2023/01/01 04:41:14;;;;;;;;;;;15.40;99.90;;;;;;5071361;28;19920;-64
2023/01/01 04:43:39;;;;;;;;;;;15.40;99.90;;;;;;5068776;28;19966;-64
2023/01/01 04:46:05;;;;;;;;;;;15.40;99.90;;;;;;5066032;28;19912;-63
2023/01/01 04:48:30;;;;;;;;;;;15.30;99.90;;;;;;5072721;28;19912;-63
2023/01/01 04:50:57;;;;;;;;;;;15.40;99.90;;;;;;5069302;28;20016;-64
2023/01/01 04:53:23;;;;;;;;;;;15.30;99.90;;;;;;5077919;23;19920;-65
2023/01/01 04:55:48;;;;;;;;;;;15.20;99.90;;;;;;5064000;28;19908;-64
2023/01/01 04:58:14;;;;;;;;;;;15.20;99.90;;;;;;5068211;28;19912;-64
2023/01/01 05:00:39;;;;;;;;;;;15.30;99.90;;;;;;5066338;28;19918;-65
2023/01/01 05:03:04;;;;;;;;;;;15.20;99.90;;;;;;5076343;28;19908;-64
2023/01/01 05:05:30;;;;;;;;;;;15.10;99.90;;;;;;5069417;28;19999;-63
2023/01/01 05:07:55;;;;;;;;;;;15.20;99.90;;;;;;5076610;28;20361;-62
2023/01/01 05:10:21;;;;;;;;;;;15.20;99.90;;;;;;5068452;28;20374;-64
2023/01/01 05:12:46;;;;;;;;;;;15.20;99.90;;;;;;5074927;28;20353;-65
2023/01/01 05:15:12;;;;;;;;;;;15.20;99.90;;;;;;5064903;28;19909;-65
2023/01/01 05:17:37;;;;;;;;;;;15.10;99.90;;;;;;5068958;28;19908;-64
2023/01/01 05:20:03;;;;;;;;;;;15.10;99.90;;;;;;5071396;28;19912;-64
2023/01/01 05:22:28;;;;;;;;;;;15.10;99.90;;;;;;5066520;28;19936;-64
2023/01/01 05:24:54;;;;;;;;;;;15.10;99.90;;;;;;5073196;28;19912;-62
2023/01/01 05:27:19;;;;;;;;;;;15.10;99.90;;;;;;5065439;28;20021;-64
2023/01/01 05:29:45;;;;;;;;;;;15.00;99.90;;;;;;5069648;28;19916;-64
2023/01/01 05:32:10;;;;;;;;;;;15.00;99.90;;;;;;5068529;28;19908;-62
2023/01/01 05:34:36;;;;;;;;;;;15.00;99.90;;;;;;5070419;28;20001;-65
2023/01/01 05:37:01;;;;;;;;;;;14.90;99.90;;;;;;5068232;28;19908;-64
2023/01/01 05:39:27;;;;;;;;;;;14.90;99.90;;;;;;5068415;28;20064;-64
2023/01/01 05:41:52;;;;;;;;;;;14.90;99.90;;;;;;5069017;28;19915;-63
2023/01/01 05:44:18;;;;;;;;;;;14.90;99.90;;;;;;5063994;28;20273;-65
2023/01/01 05:46:44;;;;;;;;;;;14.90;99.90;;;;;;5068377;28;19915;-65
2023/01/01 05:49:10;;;;;;;;;;;14.90;99.90;;;;;;5066815;28;19946;-65
2023/01/01 05:51:36;;;;;;;;;;;14.90;99.90;;;;;;5069433;28;19909;-65
2023/01/01 05:54:01;;;;;;;;;;;14.90;99.90;;;;;;5064019;28;20381;-65
2023/01/01 05:56:27;;;;;;;;;;;14.90;99.90;;;;;;5075081;28;19966;-65
2023/01/01 05:58:53;;;;;;;;;;;14.90;99.90;;;;;;5070979;28;19909;-65
2023/01/01 06:01:23;;;;;;;;;;;15.00;99.90;;;;;;5065560;28;19923;-65
2023/01/01 06:03:49;;;;;;;;;;;15.00;99.90;;;;;;5069976;28;19916;-63
2023/01/01 06:06:16;;;;;;;;;;;15.00;99.90;;;;;;5071770;28;19917;-64
2023/01/01 06:08:42;;;;;;;;;;;15.00;99.90;;;;;;5069292;28;19918;-65
2023/01/01 06:11:09;;;;;;;;;;;14.90;99.90;;;;;;5065841;28;19921;-63
2023/01/01 06:13:35;;;;;;;;;;;15.00;99.90;;;;;;5069526;28;19909;-66
2023/01/01 06:16:00;;;;;;;;;;;15.00;99.90;;;;;;5075601;28;19908;-64
2023/01/01 06:18:28;;;;;;;;;;;15.00;99.90;;;;;;5068179;28;19915;-64
2023/01/01 06:20:54;;;;;;;;;;;14.90;99.90;;;;;;5069077;28;20274;-65
2023/01/01 06:23:19;;;;;;;;;;;14.90;99.90;;;;;;5071736;28;19935;-65
2023/01/01 06:25:45;;;;;;;;;;;14.90;99.90;;;;;;5072756;28;20384;-62
2023/01/01 06:28:10;;;;;;;;;;;15.00;99.90;;;;;;5070801;28;19912;-64
2023/01/01 06:30:36;;;;;;;;;;;15.00;99.90;;;;;;5072368;28;20319;-64
2023/01/01 06:33:02;;;;;;;;;;;15.00;99.90;;;;;;5078103;28;19908;-63
2023/01/01 06:35:28;;;;;;;;;;;15.00;99.90;;;;;;5072103;28;19912;-64
2023/01/01 06:37:53;;;;;;;;;;;15.00;99.90;;;;;;5082973;28;19915;-64
2023/01/01 06:40:18;;;;;;;;;;;15.00;99.90;;;;;;5075654;28;19955;-65
2023/01/01 06:42:44;;;;;;;;;;;14.90;99.90;;;;;;5076967;28;19920;-64
2023/01/01 06:45:09;;;;;;;;;;;14.90;99.90;;;;;;5069730;28;20285;-63
2023/01/01 06:47:35;;;;;;;;;;;14.90;99.90;;;;;;5073772;28;20049;-64
2023/01/01 06:50:01;;;;;;;;;;;14.90;99.90;;;;;;5071395;28;20007;-65
2023/01/01 06:52:27;;;;;;;;;;;15.00;99.90;;;;;;5070737;28;19987;-65
2023/01/01 06:54:52;;;;;;;;;;;14.90;99.90;;;;;;5072005;28;19995;-62
2023/01/01 06:57:18;;;;;;;;;;;14.90;99.90;;;;;;5073631;28;19954;-64
2023/01/01 06:59:43;;;;;;;;;;;15.00;99.90;;;;;;5072291;28;19983;-64
2023/01/01 07:02:10;;;;;;;;;;;15.00;99.90;;;;;;5072737;28;19909;-63
2023/01/01 07:04:35;;;;;;;;;;;14.90;99.90;;;;;;5073140;28;20455;-64
2023/01/01 07:07:01;;;;;;;;;;;14.90;99.90;;;;;;5071663;28;19908;-63
2023/01/01 07:09:26;;;;;;;;;;;15.00;99.90;;;;;;5066341;28;19970;-64
2023/01/01 07:11:52;;;;;;;;;;;14.90;99.90;;;;;;5075980;28;19908;-65
2023/01/01 07:14:17;;;;;;;;;;;14.90;99.90;;;;;;5072817;28;19908;-64
2023/01/01 07:16:43;;;;;;;;;;;15.00;99.90;;;;;;5073682;28;19909;-65
2023/01/01 07:19:08;;;;;;;;;;;15.00;99.90;;;;;;5068485;28;19996;-64
2023/01/01 07:21:46;;;;;;;;;;;15.00;99.90;;;;;;5076282;28;19995;-63
2023/01/01 07:24:12;;;;;;;;;;;15.00;99.90;;;;;;5076471;28;19908;-66
2023/01/01 07:26:38;;;;;;;;;;;15.20;99.90;;;;;;5069106;28;19945;-65
2023/01/01 07:29:04;;;;;;;;;;;15.20;99.90;;;;;;5072286;28;19981;-64
2023/01/01 07:31:30;;;;;;;;;;;15.20;99.90;;;;;;5069664;28;20674;-62
2023/01/01 07:33:55;;;;;;;;;;;15.30;99.90;;;;;;5069612;28;19971;-65
2023/01/01 07:36:21;;;;;;;;;;;15.20;99.90;;;;;;5072509;28;19908;-63
2023/01/01 07:38:46;;;;;;;;;;;15.20;99.90;;;;;;5071825;28;20064;-64
2023/01/01 07:41:12;;;;;;;;;;;15.30;99.90;;;;;;5081927;28;19908;-65
2023/01/01 07:43:37;;;;;;;;;;;15.20;99.90;;;;;;5073416;28;19909;-65
2023/01/01 07:46:03;;;;;;;;;;;15.20;99.90;;;;;;5070553;28;19908;-64
2023/01/01 07:48:29;;;;;;;;;;;15.20;99.90;;;;;;5063085;28;19969;-64
2023/01/01 07:50:55;;;;;;;;;;;15.20;99.90;;;;;;5073025;28;19909;-66
2023/01/01 07:53:20;;;;;;;;;;;15.20;99.90;;;;;;5069441;28;19958;-64
2023/01/01 07:55:46;;;;;;;;;;;15.10;99.90;;;;;;5076659;28;20003;-64
2023/01/01 07:58:12;;;;;;;;;;;15.10;99.90;;;;;;5069923;28;19916;-65
2023/01/01 08:00:37;;;;;;;;;;;15.10;99.90;;;;;;5068443;28;19918;-64
2023/01/01 08:03:03;;;;;;;;;;;15.10;99.90;;;;;;5070814;28;19913;-64
2023/01/01 08:05:28;;;;;;;;;;;15.10;99.90;;;;;;5068622;28;19975;-65
2023/01/01 08:07:54;;;;;;;;;;;15.20;99.90;;;;;;5072973;28;19916;-65
2023/01/01 08:10:20;;;;;;;;;;;15.10;99.90;;;;;;5076189;28;19909;-65
2023/01/01 08:12:45;;;;;;;;;;;15.10;99.90;;;;;;5071067;28;19913;-63
2023/01/01 08:15:11;;;;;;;;;;;15.10;99.90;;;;;;5075268;28;19908;-63
2023/01/01 08:17:37;;;;;;;;;;;15.10;99.90;;;;;;5075189;28;19909;-65
2023/01/01 08:20:02;;;;;;;;;;;15.10;99.90;;;;;;5071139;28;20370;-64
2023/01/01 08:22:28;;;;;;;;;;;15.10;99.90;;;;;;5073002;28;19908;-65
2023/01/01 08:24:53;;;;;;;;;;;15.10;99.90;;;;;;5070593;28;20203;-64
2023/01/01 08:27:19;;;;;;;;;;;15.10;99.90;;;;;;5068492;28;19912;-63
2023/01/01 08:29:44;;;;;;;;;;;15.00;99.90;;;;;;5071534;28;19911;-62
2023/01/01 08:32:13;;;;;;;;;;;15.00;99.90;;;;;;5073199;28;19924;-65
2023/01/01 08:34:38;;;;;;;;;;;15.00;99.90;;;;;;5066355;28;19991;-64
2023/01/01 08:37:04;;;;;;;;;;;15.00;99.90;;;;;;5068029;28;19995;-64
2023/01/01 08:39:29;;;;;;;;;;;14.90;99.90;;;;;;5067285;28;20259;-65
2023/01/01 08:41:55;;;;;;;;;;;14.90;99.90;;;;;;5069971;28;19908;-63
2023/01/01 08:44:20;;;;;;;;;;;14.90;99.90;;;;;;5065834;28;20280;-64
2023/01/01 08:46:46;;;;;;;;;;;14.90;99.90;;;;;;5064975;28;19931;-65
2023/01/01 08:49:11;;;;;;;;;;;14.90;99.90;;;;;;5067140;28;19973;-64
2023/01/01 08:51:37;;;;;;;;;;;14.80;99.90;;;;;;5066295;28;19995;-64
2023/01/01 08:54:02;;;;;;;;;;;14.80;99.90;;;;;;5068096;28;20271;-65
2023/01/01 08:56:28;;;;;;;;;;;14.80;99.90;;;;;;5061668;28;19975;-64
2023/01/01 08:58:53;;;;;;;;;;;14.80;99.90;;;;;;5068227;28;19981;-64
2023/01/01 09:01:20;;;;;;;;;;;14.80;99.90;;;;;;5070522;28;19912;-64
2023/01/01 09:03:46;;;;;;;;;;;14.80;99.90;;;;;;5074853;28;19917;-64
2023/01/01 09:06:12;;;;;;;;;;;14.80;99.90;;;;;;5069729;28;19919;-63
2023/01/01 09:08:38;;;;;;;;;;;14.80;99.90;;;;;;5071806;28;19924;-63
2023/01/01 09:11:03;;;;;;;;;;;14.80;99.90;;;;;;5078376;28;19912;-64
2023/01/01 09:13:30;;;;;;;;;;;14.80;99.90;;;;;;5068623;28;19913;-63
2023/01/01 09:15:56;;;;;;;;;;;14.80;99.90;;;;;;5068798;28;19956;-63
2023/01/01 09:18:21;;;;;;;;;;;14.80;99.90;;;;;;5070051;28;19951;-62
2023/01/01 09:20:47;;;;;;;;;;;14.70;99.90;;;;;;5080792;28;20032;-64
2023/01/01 09:23:12;;;;;;;;;;;14.70;99.90;;;;;;5071610;28;20286;-64
2023/01/01 09:25:38;;;;;;;;;;;14.70;99.90;;;;;;5071854;28;19909;-65
2023/01/01 09:28:05;;;;;;;;;;;14.80;99.90;;;;;;5074230;28;19970;-62
2023/01/01 09:30:31;;;;;;;;;;;14.80;99.90;;;;;;5076525;28;19947;-61
2023/01/01 09:32:56;;;;;;;;;;;14.80;99.90;;;;;;5073773;28;20391;-64
2023/01/01 09:35:22;;;;;;;;;;;14.80;99.90;;;;;;5084406;28;19989;-64
2023/01/01 09:37:47;;;;;;;;;;;14.70;99.90;;;;;;5067618;28;20386;-64
2023/01/01 09:40:33;;;;;;;;;;;14.80;99.90;;;;;;5077589;28;20283;-64
2023/01/01 09:43:09;;;;;;;;;;;14.70;99.90;;;;;;5064856;28;20282;-63
2023/01/01 09:45:40;;;;;;;;;;;14.70;99.90;;;;;;5064994;28;19913;-64
2023/01/01 09:48:10;;;;;;;;;;;14.80;99.90;;;;;;5066751;28;20441;-63
2023/01/01 09:50:40;;;;;;;;;;;14.70;99.90;;;;;;5069175;28;20360;-64
2023/01/01 09:53:14;;;;;;;;;;;14.80;99.90;;;;;;5076179;28;19993;-63
2023/01/01 09:55:45;;;;;;;;;;;14.80;99.90;;;;;;5079983;28;19912;-63
2023/01/01 09:58:11;;;;;;;;;;;14.80;99.90;;;;;;5070723;28;19915;-64
2023/01/01 10:00:38;;;;;;;;;;;14.90;99.90;;;;;;5072195;28;19919;-63
2023/01/01 10:03:10;;;;;;;;;;;14.90;99.90;;;;;;5071374;28;20293;-64
2023/01/01 10:05:51;;;;;;;;;;;14.90;99.90;;;;;;5073669;28;19919;-64
2023/01/01 10:08:35;;;;;;;;;;;14.90;99.90;;;;;;5071652;28;19913;-63
2023/01/01 10:11:04;;;;;;;;;;;14.90;99.90;;;;;;5078964;28;19962;-64
2023/01/01 10:13:36;;;;;;;;;;;14.90;99.90;;;;;;5071232;28;19940;-64
2023/01/01 10:16:17;;;;;;;;;;;14.90;99.90;;;;;;5079600;28;19966;-65
2023/01/01 10:18:44;;;;;;;;;;;14.90;99.90;;;;;;5069231;28;19940;-64
2023/01/01 10:21:12;;;;;;;;;;;14.90;99.90;;;;;;5071235;28;19913;-64
2023/01/01 10:23:48;;;;;;;;;;;14.90;99.90;;;;;;5074321;28;20444;-64
2023/01/01 10:26:18;;;;;;;;;;;14.90;99.90;;;;;;5073909;28;19908;-64
2023/01/01 10:29:01;;;;;;;;;;;14.90;99.90;;;;;;5084728;28;19977;-63
2023/01/01 10:31:29;;;;;;;;;;;15.00;99.90;;;;;;5071631;28;19919;-64
2023/01/01 10:33:55;;;;;;;;;;;15.00;99.90;;;;;;5071694;28;19935;-64
2023/01/01 10:36:20;;;;;;;;;;;15.00;99.90;;;;;;5086126;28;19908;-63
2023/01/01 10:38:47;;;;;;;;;;;15.00;99.90;;;;;;5072478;28;19917;-64
2023/01/01 10:41:13;;;;;;;;;;;14.90;99.90;;;;;;5078974;28;19952;-63
2023/01/01 10:43:38;;;;;;;;;;;14.90;99.90;;;;;;5070234;28;19951;-64
2023/01/01 10:46:04;;;;;;;;;;;14.90;99.90;;;;;;5073795;28;19987;-61
2023/01/01 10:48:31;;;;;;;;;;;14.90;99.90;;;;;;5072347;28;19943;-64
2023/01/01 10:50:56;;;;;;;;;;;14.90;99.90;;;;;;5072703;28;20297;-63
2023/01/01 10:53:29;;;;;;;;;;;14.90;99.90;;;;;;5085964;23;19925;-65
2023/01/01 10:56:07;;;;;;;;;;;14.90;99.90;;;;;;5045239;28;19917;-65
2023/01/01 10:58:34;;;;;;;;;;;14.90;99.90;;;;;;5047548;28;20415;-65
2023/01/01 11:01:01;;;;;;;;;;;14.90;99.90;;;;;;5047248;28;20008;-65
2023/01/01 11:03:26;;;;;;;;;;;14.90;99.90;;;;;;5048446;28;19923;-65
2023/01/01 11:06:10;;;;;;;;;;;14.90;99.90;;;;;;5045790;28;20008;-65
2023/01/01 11:08:36;;;;;;;;;;;14.90;99.90;;;;;;5045227;28;19929;-65
2023/01/01 11:11:02;;;;;;;;;;;14.90;99.90;;;;;;5041167;28;20032;-66
2023/01/01 11:13:28;;;;;;;;;;;14.90;99.90;;;;;;5047891;28;19916;-65
2023/01/01 11:15:54;;;;;;;;;;;14.90;99.90;;;;;;5050568;28;20383;-64
2023/01/01 11:18:21;;;;;;;;;;;14.90;99.90;;;;;;5056320;28;19959;-65
2023/01/01 11:20:57;;;;;;;;;;;14.90;99.90;;;;;;5043939;28;20294;-65
2023/01/01 11:23:33;;;;;;;;;;;14.90;99.90;;;;;;5044809;28;20336;-65
2023/01/01 11:26:19;;;;;;;;;;;14.90;99.90;;;;;;5045151;28;19920;-57
2023/01/01 11:29:07;;;;;;;;;;;14.90;99.90;;;;;;5049911;28;20378;-59
2023/01/01 11:31:37;;;;;;;;;;;14.90;99.90;;;;;;5048691;28;19932;-57
2023/01/01 11:34:10;;;;;;;;;;;14.90;99.90;;;;;;5047344;28;19920;-59
2023/01/01 11:36:35;;;;;;;;;;;14.90;99.90;;;;;;5045798;28;20548;-59
2023/01/01 11:39:16;;;;;;;;;;;14.90;99.90;;;;;;5051254;28;20079;-58
2023/01/01 11:41:43;;;;;;;;;;;14.80;99.90;;;;;;5041976;28;20003;-53
2023/01/01 11:44:11;;;;;;;;;;;14.90;99.90;;;;;;5048378;28;19913;-57
2023/01/01 11:46:36;;;;;;;;;;;14.90;99.90;;;;;;5049455;28;19963;-59
2023/01/01 11:49:02;;;;;;;;;;;14.90;99.90;;;;;;5046460;28;19956;-57
2023/01/01 11:51:31;;;;;;;;;;;14.90;99.90;;;;;;5048841;28;19924;-58
2023/01/01 11:54:15;;;;;;;;;;;14.90;99.90;;;;;;5052403;28;19916;-56
2023/01/01 11:56:40;;;;;;;;;;;14.90;99.90;;;;;;5046592;28;19913;-59
2023/01/01 11:59:17;;;;;;;;;;;14.90;99.90;;;;;;5046047;28;19920;-59
2023/01/01 12:01:48;;;;;;;;;;;14.90;99.90;;;;;;5050604;28;19913;-59
2023/01/01 12:04:18;;;;;;;;;;;14.90;99.90;;;;;;5045775;28;19948;-59
2023/01/01 12:06:43;;;;;;;;;;;14.90;99.90;;;;;;5051834;28;19924;-58
2023/01/01 12:09:09;;;;;;;;;;;14.90;99.90;;;;;;5049558;28;19917;-58
2023/01/01 12:11:42;;;;;;;;;;;14.90;99.90;;;;;;5045506;28;19920;-58
2023/01/01 12:14:26;;;;;;;;;;;14.90;99.90;;;;;;5044471;28;19996;-53
2023/01/01 12:16:54;;;;;;;;;;;14.90;99.90;;;;;;5052576;28;20016;-56
2023/01/01 12:19:26;;;;;;;;;;;14.90;99.90;;;;;;5046147;28;19995;-56
2023/01/01 12:21:54;;;;;;;;;;;14.90;99.90;;;;;;5049141;28;20015;-57
2023/01/01 12:24:20;;;;;;;;;;;14.90;99.90;;;;;;5049144;28;20046;-56
2023/01/01 12:27:03;;;;;;;;;;;14.90;99.90;;;;;;5047624;28;19913;-56
2023/01/01 12:29:39;;;;;;;;;;;14.90;99.90;;;;;;5047536;28;20003;-58
2023/01/01 12:32:22;;;;;;;;;;;14.90;99.90;;;;;;5051719;28;19920;-58
2023/01/01 12:34:53;;;;;;;;;;;15.00;99.90;;;;;;5047821;28;20484;-55
2023/01/01 12:37:57;;;;;;;;;;;15.00;99.90;;;;;;5049225;28;20371;-56
2023/01/01 12:40:37;;;;;;;;;;;15.00;99.90;;;;;;4989757;28;19910;-58
2023/01/01 12:43:07;;;;;;;;;;;15.00;99.90;;;;;;4983025;28;19957;-58
2023/01/01 12:45:33;;;;;;;;;;;15.00;99.90;;;;;;5025322;28;19913;-57
2023/01/01 12:48:12;;;;;;;;;;;15.00;99.90;;;;;;5051159;28;19924;-58
2023/01/01 12:50:43;;;;;;;;;;;15.00;99.90;;;;;;5043797;28;20016;-54
2023/01/01 12:53:13;;;;;;;;;;;15.00;99.90;;;;;;5047030;28;19921;-56
2023/01/01 12:56:02;;;;;;;;;;;15.00;99.90;;;;;;5046423;28;19920;-55
2023/01/01 12:58:40;;;;;;;;;;;15.00;99.90;;;;;;5043644;28;20003;-55
2023/01/01 13:01:11;;;;;;;;;;;14.90;99.90;;;;;;5047204;28;19913;-55
2023/01/01 13:03:54;;;;;;;;;;;14.90;99.90;;;;;;5046718;28;20003;-56
2023/01/01 13:06:23;;;;;;;;;;;14.90;99.90;;;;;;5052189;28;19912;-58
2023/01/01 13:08:50;;;;;;;;;;;14.90;99.90;;;;;;5054262;28;19917;-56
2023/01/01 13:11:16;;;;;;;;;;;15.00;99.90;;;;;;5044144;28;19916;-59
2023/01/01 13:13:41;;;;;;;;;;;14.90;99.90;;;;;;5044255;28;20323;-58
2023/01/01 13:16:09;;;;;;;;;;;14.90;99.90;;;;;;5042390;28;19990;-59
2023/01/01 13:18:35;;;;;;;;;;;14.90;99.90;;;;;;5051347;28;19927;-60
2023/01/01 13:21:02;;;;;;;;;;;14.90;99.90;;;;;;5039733;28;19916;-60
2023/01/01 13:23:27;;;;;;;;;;;15.00;99.90;;;;;;5043020;28;20386;-56
2023/01/01 13:26:12;;;;;;;;;;;15.00;99.90;;;;;;5044145;28;20078;-56
2023/01/01 13:28:37;;;;;;;;;;;15.00;99.90;;;;;;5041225;28;20302;-60
2023/01/01 13:31:02;;;;;;;;;;;15.00;99.90;;;;;;5048584;28;19913;-58
2023/01/01 13:33:30;;;;;;;;;;;15.00;99.90;;;;;;5043884;28;20375;-61
2023/01/01 13:36:09;;;;;;;;;;;14.90;99.90;;;;;;5042949;28;20004;-59
2023/01/01 13:38:47;;;;;;;;;;;15.00;99.90;;;;;;5042737;28;20302;-54
2023/01/01 13:41:25;;;;;;;;;;;15.00;99.90;;;;;;5046367;28;20008;-55
2023/01/01 13:43:51;;;;;;;;;;;15.00;99.90;;;;;;5045063;28;19968;-58
2023/01/01 13:46:18;;;;;;;;;;;15.00;99.90;;;;;;5045120;28;20000;-58
2023/01/01 13:48:46;;;;;;;;;;;14.90;99.90;;;;;;5050668;28;19970;-56
2023/01/01 13:51:24;;;;;;;;;;;14.90;99.90;;;;;;5053340;28;19952;-58
2023/01/01 13:53:49;;;;;;;;;;;14.90;99.90;;;;;;5046759;28;20337;-57
2023/01/01 13:56:20;;;;;;;;;;;14.90;99.90;;;;;;5041120;28;19965;-57
2023/01/01 13:58:58;;;;;;;;;;;14.90;99.90;;;;;;5045535;28;19920;-58
2023/01/01 14:01:32;;;;;;;;;;;14.90;99.90;;;;;;5047699;28;20275;-54
2023/01/01 14:03:58;;;;;;;;;;;14.90;99.90;;;;;;5041384;28;19913;-57
2023/01/01 14:06:41;;;;;;;;;;;14.90;99.90;;;;;;5051911;28;20020;-55
2023/01/01 14:09:14;;;;;;;;;;;14.90;99.90;;;;;;5044250;28;19927;-56
2023/01/01 14:11:39;;;;;;;;;;;15.00;99.90;;;;;;5045539;28;19919;-55
2023/01/01 14:14:24;;;;;;;;;;;15.00;99.90;;;;;;5048520;28;20345;-56
2023/01/01 14:16:51;;;;;;;;;;;14.90;99.90;;;;;;5048739;28;19913;-57
2023/01/01 14:19:16;;;;;;;;;;;14.90;99.90;;;;;;5055164;28;19917;-54
2023/01/01 14:21:44;;;;;;;;;;;14.90;99.90;;;;;;5056852;28;20360;-55
2023/01/01 14:24:12;;;;;;;;;;;14.90;99.90;;;;;;5058093;28;19913;-53
2023/01/01 14:26:37;;;;;;;;;;;14.90;99.90;;;;;;5057641;28;19913;-57